Time;durP1;ratioP1;P1;durP2;ratioP2;P2;SDS_P1;SDS_P2;PMS_P1;PMS_P2;Temp;Humidity;BMP_temperature;BMP_pressure;BME280_temperature;BME280_humidity;BME280_pressure;Samples;Min_cycle;Max_cycle;Signal;HPM_P1;HPM_P2
2022/07/24 00:01:43;;;;;;;6.40;5.90;;;14.30;99.90;;;;;;5069250;28;20512;-70
2022/07/24 00:04:33;;;;;;;6.20;5.70;;;14.30;99.90;;;;;;5067012;28;20512;-69
2022/07/24 00:07:23;;;;;;;6.40;5.90;;;14.20;99.90;;;;;;5060053;28;20611;-69
2022/07/24 00:10:12;;;;;;;6.60;6.00;;;14.20;99.90;;;;;;5069525;28;20815;-70
2022/07/24 00:13:02;;;;;;;6.37;5.77;;;14.20;99.90;;;;;;5070054;28;20825;-68
2022/07/24 00:15:50;;;;;;;6.17;5.67;;;14.10;99.90;;;;;;5063929;28;20552;-69
2022/07/24 00:18:38;;;;;;;6.63;6.10;;;14.10;99.90;;;;;;5061709;28;20462;-68
2022/07/24 00:21:28;;;;;;;6.30;5.77;;;14.00;99.90;;;;;;5065035;28;21020;-69
2022/07/24 00:24:17;;;;;;;6.00;5.40;;;14.10;99.90;;;;;;5060372;28;20941;-69
2022/07/24 00:27:06;;;;;;;5.60;5.10;;;14.00;99.90;;;;;;5066567;28;20584;-69
2022/07/24 00:29:54;;;;;;;6.03;5.50;;;14.00;99.90;;;;;;5048742;28;20458;-69
2022/07/24 00:32:43;;;;;;;5.53;5.13;;;14.00;99.90;;;;;;5062646;28;20454;-69
2022/07/24 00:35:31;;;;;;;5.83;5.33;;;13.90;99.90;;;;;;5060589;28;20455;-69
2022/07/24 00:38:21;;;;;;;5.30;4.90;;;13.90;99.90;;;;;;5066939;28;20569;-68
2022/07/24 00:41:09;;;;;;;5.40;5.00;;;13.80;99.90;;;;;;5056284;28;20489;-69
2022/07/24 00:44:03;;;;;;;5.40;5.00;;;13.90;99.90;;;;;;5057351;28;20828;-69
2022/07/24 00:46:52;;;;;;;5.50;4.67;;;13.80;99.90;;;;;;5056820;28;21103;-70
2022/07/24 00:49:40;;;;;;;5.40;4.90;;;13.80;99.90;;;;;;5063743;28;20481;-70
2022/07/24 00:52:29;;;;;;;5.23;4.73;;;13.70;99.90;;;;;;5056701;28;20434;-69
2022/07/24 00:55:21;;;;;;;4.87;4.57;;;13.70;99.90;;;;;;5060437;28;20547;-69
2022/07/24 00:58:13;;;;;;;5.80;5.27;;;13.70;99.90;;;;;;5060928;28;20488;-69
2022/07/24 01:01:01;;;;;;;5.53;5.13;;;13.70;99.90;;;;;;5062357;28;20550;-69
2022/07/24 01:03:51;;;;;;;5.50;5.10;;;13.70;99.90;;;;;;5063447;28;20441;-69
2022/07/24 01:06:41;;;;;;;5.60;5.20;;;13.60;99.90;;;;;;5060300;28;21069;-69
2022/07/24 01:09:29;;;;;;;5.40;5.00;;;13.60;99.90;;;;;;5062737;28;20465;-70
2022/07/24 01:12:21;;;;;;;5.97;5.57;;;13.70;99.90;;;;;;5061298;28;20473;-69
2022/07/24 01:15:11;;;;;;;6.20;5.70;;;13.70;99.90;;;;;;5058721;28;20949;-70
2022/07/24 01:17:59;;;;;;;6.20;5.70;;;13.70;99.90;;;;;;5062434;28;21001;-70
2022/07/24 01:20:52;;;;;;;6.00;5.50;;;13.70;99.90;;;;;;5064555;28;20559;-70
2022/07/24 01:23:40;;;;;;;6.43;5.93;;;13.60;99.90;;;;;;5059182;28;21005;-70
2022/07/24 01:29:03;;;;;;;5.87;5.37;;;13.50;99.90;;;;;;5087921;28;20795;-73
2022/07/24 01:31:52;;;;;;;6.43;5.83;;;13.50;99.90;;;;;;5084092;28;20429;-74
2022/07/24 01:34:40;;;;;;;6.77;6.10;;;13.40;99.90;;;;;;5079418;28;20519;-73
2022/07/24 01:37:30;;;;;;;6.57;5.97;;;13.40;99.90;;;;;;5077395;28;20472;-73
2022/07/24 01:40:18;;;;;;;5.93;5.40;;;13.50;99.90;;;;;;5085910;28;20544;-74
2022/07/24 01:43:07;;;;;;;6.17;5.77;;;13.40;99.90;;;;;;5081131;28;20514;-73
2022/07/24 01:45:56;;;;;;;6.07;5.57;;;13.40;99.90;;;;;;5091319;28;20520;-74
2022/07/24 01:48:47;;;;;;;6.10;5.57;;;13.40;99.90;;;;;;5073810;28;20472;-74
2022/07/24 01:51:36;;;;;;;5.17;4.73;;;13.40;99.90;;;;;;5088293;28;20470;-73
2022/07/24 01:54:29;;;;;;;5.20;4.70;;;13.40;99.90;;;;;;5084546;28;20451;-74
2022/07/24 01:57:20;;;;;;;5.60;5.10;;;13.40;99.90;;;;;;5084645;28;20938;-73
2022/07/24 02:00:12;;;;;;;6.37;5.23;;;13.30;99.90;;;;;;5090240;28;21070;-74
2022/07/24 02:03:01;;;;;;;4.70;4.27;;;13.30;99.90;;;;;;5087907;28;20480;-74
2022/07/24 02:05:50;;;;;;;5.13;4.73;;;13.20;99.90;;;;;;5081164;28;20506;-73
2022/07/24 02:08:38;;;;;;;5.43;5.03;;;13.20;99.90;;;;;;5087932;28;20520;-74
2022/07/24 02:11:27;;;;;;;5.90;5.30;;;13.20;99.90;;;;;;5089326;28;20463;-73
2022/07/24 02:14:16;;;;;;;5.30;4.90;;;13.20;99.90;;;;;;5081664;28;20522;-73
2022/07/24 02:17:04;;;;;;;5.60;5.10;;;13.20;99.90;;;;;;5082292;28;20484;-73
2022/07/24 02:19:53;;;;;;;5.30;4.80;;;13.20;99.90;;;;;;5084123;28;20449;-73
2022/07/24 02:22:41;;;;;;;5.80;5.30;;;13.20;99.90;;;;;;5081031;28;20567;-73
2022/07/24 02:25:29;;;;;;;5.93;5.43;;;13.20;99.90;;;;;;5080812;28;20587;-74
2022/07/24 02:28:19;;;;;;;5.13;4.70;;;13.10;99.90;;;;;;5083024;28;20523;-73
2022/07/24 02:31:08;;;;;;;5.30;4.90;;;13.10;99.90;;;;;;5079588;28;20599;-73
2022/07/24 02:33:56;;;;;;;5.13;4.63;;;13.10;99.90;;;;;;5080113;28;20534;-73
2022/07/24 02:36:44;;;;;;;5.20;4.70;;;13.10;99.90;;;;;;5081923;28;20916;-73
2022/07/24 02:39:33;;;;;;;5.20;4.80;;;13.10;99.90;;;;;;5085029;28;20499;-73
2022/07/24 02:42:21;;;;;;;4.93;4.53;;;13.10;99.90;;;;;;5081165;28;20444;-73
2022/07/24 02:45:12;;;;;;;5.33;4.83;;;13.10;99.90;;;;;;5086835;28;21172;-73
2022/07/24 02:48:00;;;;;;;4.53;4.13;;;13.00;99.90;;;;;;5087598;28;20475;-73
2022/07/24 02:50:48;;;;;;;5.03;4.50;;;13.00;99.90;;;;;;5081127;28;20498;-73
2022/07/24 02:53:37;;;;;;;5.40;5.00;;;13.00;99.90;;;;;;5084089;28;20453;-73
2022/07/24 02:56:26;;;;;;;4.00;3.70;;;13.00;99.90;;;;;;5080898;28;20531;-73
2022/07/24 02:59:16;;;;;;;4.90;4.50;;;13.00;99.90;;;;;;5085419;28;20474;-73
2022/07/24 03:02:09;;;;;;;5.43;4.30;;;13.00;99.90;;;;;;5092113;28;21021;-72
2022/07/24 03:04:57;;;;;;;5.60;5.10;;;13.00;99.90;;;;;;5089788;28;20456;-72
2022/07/24 03:07:46;;;;;;;5.43;4.70;;;12.90;99.90;;;;;;5075299;28;20552;-72
2022/07/24 03:10:35;;;;;;;4.20;3.90;;;12.90;99.90;;;;;;5067972;28;20489;-72
2022/07/24 03:13:23;;;;;;;4.50;4.10;;;12.90;99.90;;;;;;5089093;28;20999;-72
2022/07/24 03:16:11;;;;;;;5.10;4.70;;;12.90;99.90;;;;;;5086652;28;20460;-72
2022/07/24 03:19:01;;;;;;;4.20;3.80;;;12.90;99.90;;;;;;5069302;28;20461;-72
2022/07/24 03:21:50;;;;;;;4.47;4.07;;;12.90;99.90;;;;;;5088523;28;20446;-72
2022/07/24 03:24:38;;;;;;;5.03;4.63;;;12.90;99.90;;;;;;5087373;28;20563;-72
2022/07/24 03:27:27;;;;;;;5.00;4.50;;;12.90;99.90;;;;;;5083851;28;20491;-72
2022/07/24 03:30:17;;;;;;;5.27;4.77;;;12.90;99.90;;;;;;5078654;28;20527;-72
2022/07/24 03:33:06;;;;;;;4.40;4.10;;;12.80;99.90;;;;;;5075493;28;20438;-72
2022/07/24 03:35:56;;;;;;;4.73;4.30;;;12.80;99.90;;;;;;5089174;28;20970;-72
2022/07/24 03:38:45;;;;;;;5.17;4.77;;;12.80;99.90;;;;;;5092789;28;20612;-72
2022/07/24 03:41:33;;;;;;;5.30;4.90;;;12.90;99.90;;;;;;5086040;28;20460;-72
2022/07/24 03:44:21;;;;;;;5.80;5.30;;;12.80;99.90;;;;;;5087478;28;20497;-72
2022/07/24 03:47:10;;;;;;;6.20;5.13;;;12.90;99.90;;;;;;5086214;28;20960;-72
2022/07/24 03:49:58;;;;;;;6.10;5.60;;;12.90;99.90;;;;;;5085423;28;20548;-72
2022/07/24 03:52:47;;;;;;;6.00;5.40;;;13.00;99.90;;;;;;5085084;28;20590;-72
2022/07/24 03:55:36;;;;;;;8.50;6.57;;;13.00;99.90;;;;;;5086187;28;20482;-72
2022/07/24 03:58:24;;;;;;;5.67;5.27;;;13.00;99.90;;;;;;5086510;28;20556;-72
2022/07/24 04:01:12;;;;;;;6.30;5.70;;;13.10;99.90;;;;;;5092685;28;20452;-72
2022/07/24 04:04:04;;;;;;;7.00;6.40;;;13.10;99.90;;;;;;5083381;28;20469;-72
2022/07/24 04:06:53;;;;;;;6.63;6.03;;;13.20;99.90;;;;;;5084821;28;20453;-72
2022/07/24 04:09:43;;;;;;;6.53;5.83;;;13.20;99.90;;;;;;5080175;28;20449;-72
2022/07/24 04:12:31;;;;;;;8.30;6.63;;;13.20;99.90;;;;;;5087983;28;20540;-72
2022/07/24 04:15:20;;;;;;;6.50;6.00;;;13.30;99.90;;;;;;5089014;28;21094;-72
2022/07/24 04:18:08;;;;;;;7.03;6.33;;;13.30;99.90;;;;;;5089801;28;20586;-72
2022/07/24 04:20:56;;;;;;;6.63;6.03;;;13.40;99.90;;;;;;5092007;28;20496;-72
2022/07/24 04:23:45;;;;;;;8.83;5.87;;;13.30;99.90;;;;;;5097004;28;20981;-72
2022/07/24 04:26:34;;;;;;;7.67;6.87;;;13.40;99.90;;;;;;5083670;28;20970;-74
2022/07/24 04:29:23;;;;;;;6.40;5.80;;;13.40;99.90;;;;;;5078174;28;20521;-73
2022/07/24 04:32:11;;;;;;;6.37;5.83;;;13.40;99.90;;;;;;5101479;28;20449;-73
2022/07/24 04:34:59;;;;;;;6.13;5.60;;;13.50;99.90;;;;;;5090217;28;20453;-72
2022/07/24 04:37:47;;;;;;;6.40;5.80;;;13.60;99.90;;;;;;5085880;28;20472;-73
2022/07/24 04:40:36;;;;;;;6.37;5.87;;;13.60;99.90;;;;;;5077527;28;21143;-72
2022/07/24 04:43:27;;;;;;;6.80;6.10;;;13.60;99.90;;;;;;5081866;28;20539;-72
2022/07/24 04:46:16;;;;;;;6.20;5.60;;;13.70;99.90;;;;;;5085024;28;20546;-73
2022/07/24 04:49:04;;;;;;;6.40;5.80;;;13.80;99.90;;;;;;5087931;28;20509;-73
2022/07/24 04:51:53;;;;;;;5.93;5.33;;;13.80;99.90;;;;;;5085981;28;20479;-73
2022/07/24 04:54:42;;;;;;;6.27;5.47;;;13.90;99.90;;;;;;5076914;28;20533;-73
2022/07/24 04:57:30;;;;;;;6.30;5.33;;;14.00;99.90;;;;;;5083180;28;20591;-72
2022/07/24 05:00:21;;;;;;;5.83;5.10;;;14.00;99.90;;;;;;5084807;28;20437;-73
2022/07/24 05:03:09;;;;;;;5.93;5.40;;;14.00;99.90;;;;;;5084415;28;20555;-73
2022/07/24 05:05:57;;;;;;;5.90;5.40;;;14.10;99.90;;;;;;5090689;28;21045;-73
2022/07/24 05:08:45;;;;;;;6.60;5.83;;;14.10;99.90;;;;;;5088005;28;20538;-72
2022/07/24 05:11:34;;;;;;;5.90;5.30;;;14.20;99.90;;;;;;5084321;28;20956;-72
2022/07/24 05:14:23;;;;;;;5.90;5.13;;;14.20;99.90;;;;;;5089131;28;20522;-73
2022/07/24 05:17:13;;;;;;;5.77;5.27;;;14.30;99.90;;;;;;5081355;28;20557;-72
2022/07/24 05:20:02;;;;;;;6.30;5.53;;;14.30;99.90;;;;;;5087851;28;20494;-72
2022/07/24 05:22:50;;;;;;;5.57;5.07;;;14.40;99.90;;;;;;5088451;28;20530;-72
2022/07/24 05:25:38;;;;;;;7.87;6.57;;;14.50;99.90;;;;;;5086392;28;20502;-72
2022/07/24 05:28:26;;;;;;;5.73;4.87;;;14.50;99.90;;;;;;5075994;28;20485;-72
2022/07/24 05:31:15;;;;;;;6.23;5.63;;;14.60;99.90;;;;;;5080047;28;20441;-73
2022/07/24 05:34:07;;;;;;;5.73;5.23;;;14.60;99.90;;;;;;5088027;28;20449;-73
2022/07/24 05:36:55;;;;;;;5.40;4.97;;;14.70;99.90;;;;;;5076373;28;20468;-73
2022/07/24 05:39:43;;;;;;;5.00;4.47;;;14.80;99.90;;;;;;5086006;28;20547;-73
2022/07/24 05:42:32;;;;;;;5.70;4.23;;;14.80;99.90;;;;;;5083756;28;20544;-74
2022/07/24 05:45:20;;;;;;;5.53;4.97;;;14.80;99.90;;;;;;5089669;28;20479;-73
2022/07/24 05:48:10;;;;;;;4.43;4.03;;;14.90;99.90;;;;;;5081794;28;20468;-73
2022/07/24 05:51:00;;;;;;;4.27;3.97;;;14.90;99.90;;;;;;5074491;28;20540;-73
2022/07/24 05:53:48;;;;;;;4.60;3.90;;;15.00;99.90;;;;;;5077121;28;20871;-74
2022/07/24 05:56:37;;;;;;;3.83;3.53;;;15.10;99.90;;;;;;5070942;28;20445;-72
2022/07/24 05:59:25;;;;;;;4.90;4.40;;;15.20;99.90;;;;;;5071541;28;20449;-73
2022/07/24 06:02:15;;;;;;;5.70;4.13;;;15.30;99.90;;;;;;5072984;28;20566;-73
2022/07/24 06:05:04;;;;;;;4.00;3.60;;;15.30;99.90;;;;;;5057713;28;20534;-73
2022/07/24 06:07:53;;;;;;;4.13;3.80;;;15.40;99.90;;;;;;5061084;28;20491;-73
2022/07/24 06:10:42;;;;;;;3.90;3.70;;;15.50;99.90;;;;;;5072761;28;20489;-73
2022/07/24 06:13:30;;;;;;;4.20;3.80;;;15.50;99.90;;;;;;5072203;28;20547;-73
2022/07/24 06:16:19;;;;;;;3.80;3.50;;;15.60;99.90;;;;;;5088216;28;20799;-74
2022/07/24 06:19:07;;;;;;;3.50;3.30;;;15.70;99.90;;;;;;5094636;28;20452;-73
2022/07/24 06:21:56;;;;;;;3.40;3.10;;;15.80;99.90;;;;;;5091573;28;20445;-73
2022/07/24 06:24:47;;;;;;;3.40;3.20;;;15.90;99.90;;;;;;5087068;28;20483;-74
2022/07/24 06:27:41;;;;;;;3.80;3.50;;;15.90;99.90;;;;;;5077741;28;20480;-74
2022/07/24 06:30:30;;;;;;;5.27;4.23;;;16.00;99.90;;;;;;5082758;28;20480;-73
2022/07/24 06:33:18;;;;;;;3.50;3.20;;;16.10;99.90;;;;;;5084359;28;20569;-73
2022/07/24 06:36:08;;;;;;;4.00;2.90;;;16.10;99.90;;;;;;5078259;28;20475;-73
2022/07/24 06:38:56;;;;;;;6.50;2.93;;;16.20;99.90;;;;;;5082205;28;20458;-73
2022/07/24 06:41:46;;;;;;;3.83;3.50;;;16.30;99.90;;;;;;5082833;28;20541;-74
2022/07/24 06:44:36;;;;;;;3.63;3.20;;;16.30;99.90;;;;;;5083170;28;20472;-74
2022/07/24 06:47:25;;;;;;;3.73;3.03;;;16.40;99.90;;;;;;5085750;28;20991;-74
2022/07/24 06:50:15;;;;;;;3.40;3.10;;;16.50;99.90;;;;;;5065737;28;20998;-73
2022/07/24 06:53:03;;;;;;;3.80;3.40;;;16.60;99.90;;;;;;5079248;28;20511;-74
2022/07/24 06:55:55;;;;;;;3.53;3.30;;;16.70;99.90;;;;;;5081292;28;20429;-74
2022/07/24 06:58:46;;;;;;;3.20;2.90;;;16.80;99.90;;;;;;5083615;28;20480;-75
2022/07/24 07:01:34;;;;;;;3.27;3.07;;;16.90;99.90;;;;;;5079913;28;20925;-73
2022/07/24 07:04:23;;;;;;;5.10;3.00;;;17.00;99.90;;;;;;5080014;28;20939;-73
2022/07/24 07:07:11;;;;;;;3.73;3.43;;;17.10;99.90;;;;;;5083287;28;20473;-73
2022/07/24 07:09:59;;;;;;;3.57;3.23;;;17.10;99.90;;;;;;5080097;28;20552;-74
2022/07/24 07:12:47;;;;;;;3.27;2.97;;;17.20;99.90;;;;;;5075501;28;20599;-74
2022/07/24 07:15:37;;;;;;;3.67;3.27;;;17.40;99.90;;;;;;5077216;28;20437;-75
2022/07/24 07:18:25;;;;;;;5.17;3.07;;;17.40;99.90;;;;;;5081947;28;20988;-73
2022/07/24 07:21:14;;;;;;;3.60;3.30;;;17.50;99.90;;;;;;5075263;28;20480;-73
2022/07/24 07:24:02;;;;;;;3.13;2.83;;;17.60;99.90;;;;;;5080461;28;20449;-73
2022/07/24 07:26:50;;;;;;;3.53;2.90;;;17.70;99.90;;;;;;5076794;28;20481;-73
2022/07/24 07:29:39;;;;;;;3.33;2.93;;;17.80;99.90;;;;;;5072495;22;20593;-72
2022/07/24 07:32:28;;;;;;;3.33;3.03;;;17.90;99.90;;;;;;5041348;28;20451;-72
2022/07/24 07:35:22;;;;;;;3.00;2.80;;;18.00;99.90;;;;;;5044827;28;20769;-72
2022/07/24 07:38:15;;;;;;;2.70;2.60;;;18.00;99.90;;;;;;5033142;28;20565;-72
2022/07/24 07:41:11;;;;;;;3.30;3.00;;;18.10;99.90;;;;;;5039231;28;20546;-71
2022/07/24 07:44:01;;;;;;;3.30;2.97;;;18.20;99.90;;;;;;5038901;28;20448;-74
2022/07/24 07:46:49;;;;;;;4.10;3.13;;;18.20;99.90;;;;;;5040945;28;20490;-73
2022/07/24 07:49:39;;;;;;;3.13;2.83;;;18.30;99.90;;;;;;5041846;28;20482;-72
2022/07/24 07:52:28;;;;;;;3.10;2.90;;;18.30;99.90;;;;;;5040667;28;20447;-73
2022/07/24 07:55:17;;;;;;;3.10;2.90;;;18.40;99.90;;;;;;5045334;28;20452;-75
2022/07/24 07:58:07;;;;;;;3.23;2.93;;;18.40;99.90;;;;;;5043998;28;20524;-75
2022/07/24 08:00:56;;;;;;;3.67;2.83;;;18.50;99.90;;;;;;5043535;28;20497;-76
2022/07/24 08:03:44;;;;;;;3.10;2.90;;;18.60;99.90;;;;;;5036643;28;20486;-76
2022/07/24 08:06:34;;;;;;;3.50;2.83;;;18.70;99.90;;;;;;5046087;28;20475;-76
2022/07/24 08:09:22;;;;;;;4.57;3.10;;;18.80;99.90;;;;;;5045831;28;20981;-76
2022/07/24 08:12:14;;;;;;;3.47;2.70;;;18.90;99.90;;;;;;5039314;28;20446;-76
2022/07/24 08:15:04;;;;;;;3.60;3.30;;;18.90;99.90;;;;;;5036270;28;20459;-76
2022/07/24 08:17:53;;;;;;;3.37;3.07;;;19.00;99.90;;;;;;5044796;28;20446;-76
2022/07/24 08:20:42;;;;;;;3.63;2.83;;;19.10;99.90;;;;;;5035561;28;20549;-76
2022/07/24 08:23:32;;;;;;;4.13;3.17;;;19.20;99.90;;;;;;5037556;28;20457;-76
2022/07/24 08:26:22;;;;;;;3.40;3.07;;;19.30;99.90;;;;;;5045075;28;21191;-76
2022/07/24 08:29:10;;;;;;;3.17;2.87;;;19.40;99.90;;;;;;5045414;28;20574;-76
2022/07/24 08:31:59;;;;;;;3.20;3.00;;;19.50;99.90;;;;;;5039272;28;20454;-75
2022/07/24 08:34:47;;;;;;;3.10;2.90;;;19.70;99.90;;;;;;5042293;28;20498;-77
2022/07/24 08:37:38;;;;;;;4.30;2.90;;;19.70;99.90;;;;;;5041246;28;20950;-76
2022/07/24 08:40:34;;;;;;;4.20;3.80;;;19.80;99.90;;;;;;5040911;28;20537;-76
2022/07/24 08:43:23;;;;;;;3.80;3.50;;;19.90;99.90;;;;;;5043931;28;20533;-77
2022/07/24 08:46:12;;;;;;;3.80;3.50;;;20.00;99.90;;;;;;5052484;28;21289;-80
2022/07/24 08:49:01;;;;;;;2.90;2.70;;;20.10;99.90;;;;;;5048049;28;20462;-78
2022/07/24 08:51:52;;;;;;;3.47;3.17;;;20.20;99.90;;;;;;5045131;28;20465;-76
2022/07/24 08:54:40;;;;;;;3.30;2.90;;;20.20;99.90;;;;;;5036118;28;22631;-78
2022/07/24 08:57:30;;;;;;;3.00;2.80;;;20.40;99.90;;;;;;5043231;28;20530;-75
2022/07/24 09:00:20;;;;;;;3.30;3.00;;;20.50;99.90;;;;;;5044983;28;20451;-76
2022/07/24 09:03:08;;;;;;;3.27;2.97;;;20.50;99.90;;;;;;5043913;28;20481;-77
2022/07/24 09:05:59;;;;;;;3.67;3.37;;;20.60;99.90;;;;;;5038294;28;20573;-77
2022/07/24 09:08:59;;;;;;;3.10;2.90;;;20.70;99.90;;;;;;5042228;28;21009;-76
2022/07/24 09:11:47;;;;;;;2.90;2.70;;;20.80;99.90;;;;;;5036081;28;20829;-78
2022/07/24 09:14:39;;;;;;;3.47;3.17;;;20.90;99.90;;;;;;5033818;28;20850;-76
2022/07/24 09:17:29;;;;;;;3.13;2.93;;;21.00;99.90;;;;;;5040140;28;20467;-74
2022/07/24 09:20:19;;;;;;;3.10;2.90;;;21.10;99.90;;;;;;5030975;28;21093;-75
2022/07/24 09:23:09;;;;;;;3.40;3.20;;;21.20;99.90;;;;;;5049870;28;21030;-74
2022/07/24 09:25:57;;;;;;;3.30;3.10;;;21.30;99.90;;;;;;5046473;28;20559;-76
2022/07/24 09:28:54;;;;;;;3.50;3.20;;;21.40;99.90;;;;;;5043314;28;20502;-76
2022/07/24 09:31:58;;;;;;;3.80;3.37;;;21.50;99.90;;;;;;5048303;28;20836;-75
2022/07/24 09:34:47;;;;;;;3.50;3.20;;;21.60;99.90;;;;;;5047795;28;20951;-74
2022/07/24 09:37:36;;;;;;;4.50;3.57;;;21.70;99.90;;;;;;5047427;28;21040;-74
2022/07/24 09:40:30;;;;;;;4.47;4.07;;;21.80;99.90;;;;;;5048054;28;21235;-75
2022/07/24 09:43:21;;;;;;;3.23;2.93;;;21.90;99.90;;;;;;5048888;28;20445;-75
2022/07/24 09:46:14;;;;;;;4.70;4.30;;;22.00;99.90;;;;;;5045309;28;20579;-75
2022/07/24 09:49:04;;;;;;;5.63;5.17;;;22.20;99.90;;;;;;5048585;28;20511;-75
2022/07/24 09:52:12;;;;;;;7.47;6.97;;;22.30;99.90;;;;;;5050364;28;20454;-75
2022/07/24 09:55:01;;;;;;;3.30;3.10;;;22.40;99.90;;;;;;5046946;28;21000;-76
2022/07/24 09:57:50;;;;;;;3.70;3.40;;;22.40;99.90;;;;;;5040281;28;20595;-78
2022/07/24 10:00:41;;;;;;;3.90;3.60;;;22.50;99.90;;;;;;5048877;28;21048;-75
2022/07/24 10:03:32;;;;;;;3.50;3.20;;;22.70;99.90;;;;;;5046375;28;20455;-76
2022/07/24 10:06:25;;;;;;;3.67;3.37;;;22.80;99.90;;;;;;5044287;28;20467;-75
2022/07/24 10:09:16;;;;;;;3.37;3.07;;;22.90;99.90;;;;;;5050971;28;20469;-76
2022/07/24 10:12:11;;;;;;;4.00;3.70;;;23.00;99.90;;;;;;5043504;28;20535;-75
2022/07/24 10:15:01;;;;;;;4.40;3.23;;;23.20;99.90;;;;;;5048113;28;20455;-76
2022/07/24 10:18:15;;;;;;;3.40;3.20;;;23.30;99.90;;;;;;5046535;28;20528;-75
2022/07/24 10:21:10;;;;;;;3.90;3.70;;;23.30;99.90;;;;;;5044299;28;20453;-75
2022/07/24 10:24:28;;;;;;;3.80;3.50;;;23.40;99.90;;;;;;5048543;28;20466;-77
2022/07/24 10:27:24;;;;;;;3.87;3.63;;;23.50;99.90;;;;;;5045653;28;20535;-77
2022/07/24 10:30:13;;;;;;;3.50;3.30;;;23.60;99.90;;;;;;5048139;28;20528;-75
2022/07/24 10:33:01;;;;;;;3.77;3.57;;;23.70;99.90;;;;;;5047945;28;20906;-75
2022/07/24 10:35:51;;;;;;;4.20;3.90;;;23.80;99.90;;;;;;5047347;28;20546;-75
2022/07/24 10:38:42;;;;;;;4.50;4.20;;;23.90;99.90;;;;;;5047574;28;20571;-76
2022/07/24 10:41:32;;;;;;;4.77;4.47;;;24.00;99.90;;;;;;5044308;28;20477;-76
2022/07/24 10:44:27;;;;;;;5.40;5.10;;;24.10;99.90;;;;;;5048401;28;20528;-78
2022/07/24 10:47:26;;;;;;;5.20;4.80;;;24.30;99.90;;;;;;5046647;28;20529;-75
2022/07/24 10:50:16;;;;;;;5.50;5.10;;;24.40;99.90;;;;;;5044247;28;20470;-76
2022/07/24 10:53:22;;;;;;;5.87;5.47;;;24.40;99.90;;;;;;5047786;28;21045;-76
2022/07/24 10:56:25;;;;;;;5.50;5.10;;;24.50;99.90;;;;;;5040428;28;20526;-75
2022/07/24 10:59:14;;;;;;;5.50;5.10;;;24.60;99.90;;;;;;5046922;28;20988;-76
2022/07/24 11:02:28;;;;;;;5.23;4.83;;;24.70;99.90;;;;;;5049741;28;20930;-75
2022/07/24 11:05:29;;;;;;;5.47;5.07;;;24.80;99.90;;;;;;5052548;28;20457;-78
2022/07/24 11:08:38;;;;;;;6.27;5.77;;;24.90;99.90;;;;;;5049399;28;20555;-76
2022/07/24 11:11:27;;;;;;;5.77;5.27;;;25.10;99.90;;;;;;5047026;28;20447;-77
2022/07/24 11:14:19;;;;;;;5.77;5.30;;;25.20;99.90;;;;;;5047006;28;20474;-76
2022/07/24 11:17:40;;;;;;;6.93;4.90;;;25.20;99.90;;;;;;5049813;28;20796;-76
2022/07/24 11:20:35;;;;;;;5.83;5.33;;;25.30;99.90;;;;;;5051022;28;20497;-76
2022/07/24 11:23:23;;;;;;;5.37;5.07;;;25.50;99.90;;;;;;5050798;28;21153;-76
2022/07/24 11:26:40;;;;;;;5.53;5.10;;;25.60;99.90;;;;;;5038807;28;20452;-76
2022/07/24 11:29:32;;;;;;;5.70;5.30;;;25.60;99.90;;;;;;5046927;28;20652;-76
2022/07/24 11:32:20;;;;;;;5.97;5.57;;;25.70;99.90;;;;;;5050834;28;20520;-75
2022/07/24 11:35:12;;;;;;;6.20;5.70;;;25.80;99.90;;;;;;5054392;28;20458;-76
2022/07/24 11:38:03;;;;;;;5.60;5.20;;;25.90;99.90;;;;;;5048740;28;20495;-76
2022/07/24 11:41:05;;;;;;;5.87;5.57;;;26.00;99.90;;;;;;5044250;28;20553;-77
2022/07/24 11:43:54;;;;;;;6.27;5.77;;;26.10;99.90;;;;;;5044731;28;20479;-76
2022/07/24 11:46:43;;;;;;;5.47;5.17;;;26.20;99.90;;;;;;5051132;28;20997;-78
2022/07/24 11:49:31;;;;;;;5.43;5.03;;;26.30;99.90;;;;;;5051861;28;20989;-76
2022/07/24 11:52:23;;;;;;;6.90;6.40;;;26.30;99.90;;;;;;5049380;28;20456;-77
2022/07/24 11:55:13;;;;;;;6.63;6.13;;;26.40;99.90;;;;;;5047042;28;20438;-76
2022/07/24 11:58:04;;;;;;;5.83;5.43;;;26.50;99.90;;;;;;5047454;28;20473;-76
2022/07/24 12:01:20;;;;;;;5.77;5.27;;;26.50;99.90;;;;;;5051812;28;20448;-76
2022/07/24 12:04:09;;;;;;;6.23;5.93;;;26.70;99.90;;;;;;5050468;28;20538;-76
2022/07/24 12:06:57;;;;;;;6.20;5.70;;;26.90;99.90;;;;;;5050715;28;20545;-76
2022/07/24 12:09:49;;;;;;;6.23;5.70;;;27.10;99.90;;;;;;5045737;28;20537;-76
2022/07/24 12:12:39;;;;;;;5.77;5.43;;;27.20;99.90;;;;;;5047589;28;20536;-75
2022/07/24 12:15:29;;;;;;;6.23;5.37;;;27.30;99.90;;;;;;5046894;28;20457;-75
2022/07/24 12:18:18;;;;;;;6.00;5.60;;;27.50;99.90;;;;;;5049639;28;20973;-75
2022/07/24 12:21:14;;;;;;;5.93;5.53;;;27.60;99.90;;;;;;5050114;28;20450;-76
2022/07/24 12:24:03;;;;;;;5.63;5.23;;;27.80;99.90;;;;;;5047511;28;20558;-76
2022/07/24 12:26:56;;;;;;;6.40;5.80;;;27.90;99.90;;;;;;5053898;28;20962;-76
2022/07/24 12:29:45;;;;;;;6.00;5.60;;;28.10;99.90;;;;;;5045912;28;20491;-76
2022/07/24 12:32:34;;;;;;;6.53;6.10;;;28.10;99.90;;;;;;5043784;28;20875;-76
2022/07/24 12:35:23;;;;;;;5.73;5.33;;;28.00;99.90;;;;;;5046493;28;20577;-76
2022/07/24 12:38:12;;;;;;;6.13;5.63;;;28.00;99.90;;;;;;5046351;28;20462;-76
2022/07/24 12:41:05;;;;;;;5.93;5.50;;;28.10;99.90;;;;;;5047080;28;20451;-76
2022/07/24 12:43:57;;;;;;;5.97;5.47;;;28.20;99.90;;;;;;5044502;28;20464;-76
2022/07/24 12:46:49;;;;;;;6.00;5.70;;;28.30;99.90;;;;;;5049119;28;20447;-76
2022/07/24 12:49:42;;;;;;;5.77;5.37;;;28.30;99.90;;;;;;5049783;28;20565;-76
2022/07/24 12:52:30;;;;;;;5.13;4.83;;;28.50;99.90;;;;;;5045529;28;20480;-76
2022/07/24 12:55:22;;;;;;;5.87;5.37;;;28.60;99.90;;;;;;5044346;28;20994;-76
2022/07/24 12:58:10;;;;;;;5.83;5.40;;;28.70;99.90;;;;;;5049590;28;20566;-76
2022/07/24 13:01:00;;;;;;;5.33;4.93;;;28.80;99.90;;;;;;5046176;28;20458;-76
2022/07/24 13:03:56;;;;;;;5.53;5.13;;;28.80;99.90;;;;;;5047679;28;20454;-76
2022/07/24 13:06:46;;;;;;;6.50;6.00;;;28.90;99.90;;;;;;5046623;28;20938;-76
2022/07/24 13:09:35;;;;;;;6.27;5.67;;;28.90;99.90;;;;;;5046453;28;20482;-76
2022/07/24 13:12:25;;;;;;;5.33;4.93;;;28.90;99.90;;;;;;5048661;28;20477;-77
2022/07/24 13:15:14;;;;;;;5.83;5.43;;;28.90;99.90;;;;;;5047972;28;20446;-77
2022/07/24 13:18:06;;;;;;;6.00;5.60;;;28.90;99.90;;;;;;5051060;28;20604;-76
2022/07/24 13:20:55;;;;;;;6.07;5.57;;;29.00;99.90;;;;;;5043215;28;20481;-77
2022/07/24 13:23:44;;;;;;;5.40;5.10;;;29.00;99.90;;;;;;5048343;28;20500;-76
2022/07/24 13:26:32;;;;;;;6.03;5.47;;;29.00;99.90;;;;;;5046565;28;20978;-76
2022/07/24 13:29:21;;;;;;;5.23;4.90;;;29.10;99.90;;;;;;5069242;22;20497;-75
2022/07/24 13:32:09;;;;;;;5.47;5.07;;;29.20;99.90;;;;;;5089115;28;20590;-76
2022/07/24 13:34:58;;;;;;;5.67;5.27;;;29.30;99.90;;;;;;5082304;28;20452;-76
2022/07/24 13:37:47;;;;;;;5.40;5.00;;;29.40;99.90;;;;;;5080555;28;20534;-76
2022/07/24 13:40:46;;;;;;;5.43;5.00;;;29.50;99.90;;;;;;5080928;28;20476;-76
2022/07/24 13:43:34;;;;;;;6.00;5.60;;;29.60;99.90;;;;;;5090003;28;20453;-75
2022/07/24 13:46:23;;;;;;;5.63;5.30;;;29.80;99.90;;;;;;5079583;28;20448;-75
2022/07/24 13:49:14;;;;;;;5.93;5.53;;;29.90;99.90;;;;;;5084305;28;20496;-76
2022/07/24 13:52:04;;;;;;;5.63;5.23;;;30.10;99.90;;;;;;5087619;28;20819;-75
2022/07/24 13:54:56;;;;;;;5.60;5.20;;;30.20;99.90;;;;;;5089048;28;20982;-75
2022/07/24 13:57:45;;;;;;;5.40;5.00;;;30.40;99.90;;;;;;5084076;28;20456;-76
2022/07/24 14:00:33;;;;;;;5.40;5.00;;;30.50;99.90;;;;;;5085568;28;20471;-75
2022/07/24 14:03:21;;;;;;;5.83;5.43;;;30.70;99.90;;;;;;5085573;28;20460;-75
2022/07/24 14:06:28;;;;;;;5.87;5.50;;;30.80;99.90;;;;;;5088773;28;20481;-75
2022/07/24 14:09:18;;;;;;;5.30;4.93;;;30.70;99.90;;;;;;5085506;28;20541;-75
2022/07/24 14:12:07;;;;;;;6.07;5.47;;;30.90;99.90;;;;;;5088322;28;20819;-75
2022/07/24 14:15:00;;;;;;;6.00;5.60;;;30.90;99.90;;;;;;5084789;28;20476;-75
2022/07/24 14:17:49;;;;;;;5.60;5.30;;;31.10;99.90;;;;;;5082233;28;20497;-75
2022/07/24 14:20:37;;;;;;;5.00;4.70;;;31.20;99.90;;;;;;5081029;28;20562;-74
2022/07/24 14:23:25;;;;;;;5.50;5.10;;;31.30;99.90;;;;;;5085239;28;20500;-74
2022/07/24 14:26:15;;;;;;;6.40;5.10;;;31.40;99.90;;;;;;5086510;28;20523;-74
2022/07/24 14:29:03;;;;;;;5.03;4.63;;;31.50;99.90;;;;;;5084643;28;20564;-74
2022/07/24 14:31:52;;;;;;;5.27;4.87;;;31.60;99.90;;;;;;5078101;28;20494;-76
2022/07/24 14:34:40;;;;;;;6.00;4.70;;;31.80;99.90;;;;;;5088824;28;20452;-74
2022/07/24 14:37:29;;;;;;;5.53;5.13;;;;;;;;;;5089914;28;20472;-74
2022/07/24 14:40:18;;;;;;;5.20;4.90;;;;;;;;;;5089863;28;20479;-74
2022/07/24 14:43:07;;;;;;;6.67;5.10;;;;;;;;;;5093003;28;20527;-74
2022/07/24 14:45:56;;;;;;;5.67;5.27;;;;;;;;;;5090096;28;20578;-74
2022/07/24 14:48:51;;;;;;;5.57;5.27;;;;;;;;;;5089047;28;20502;-74
2022/07/24 14:51:40;;;;;;;5.17;4.87;;;;;;;;;;5087618;28;20455;-74